createdAt,value
2022-09-23T00:00:32.244Z,1.50
2022-09-23T00:01:32.310Z,1.30
2022-09-23T00:02:32.308Z,1.50
2022-09-23T00:03:32.218Z,1.40
2022-09-23T00:04:32.187Z,1.20
2022-09-23T00:05:32.194Z,1.50
2022-09-23T00:06:32.178Z,1.10
2022-09-23T00:07:32.193Z,1.20
2022-09-23T00:08:32.151Z,1.30
2022-09-23T00:09:32.152Z,1.30
2022-09-23T00:10:32.134Z,1.30
2022-09-23T00:11:32.128Z,1.10
2022-09-23T00:12:32.128Z,1.20
2022-09-23T00:13:32.174Z,1.20
2022-09-23T00:14:32.115Z,1.60
2022-09-23T00:15:32.094Z,1.30
2022-09-23T00:16:32.117Z,1.70
2022-09-23T00:17:32.079Z,1.60
2022-09-23T00:18:32.049Z,1.40
2022-09-23T00:19:32.051Z,1.20
2022-09-23T00:20:32.070Z,1.50
2022-09-23T00:21:32.034Z,1.40
2022-09-23T00:22:32.037Z,1.70
2022-09-23T00:23:32.016Z,1.40
2022-09-23T00:24:31.993Z,1.30
2022-09-23T00:25:31.999Z,1.20
2022-09-23T00:26:31.969Z,1.40
2022-09-23T00:27:31.978Z,1.10
2022-09-23T00:28:31.952Z,1.40
2022-09-23T00:29:31.961Z,1.40
2022-09-23T00:30:31.999Z,1.30
2022-09-23T00:31:31.931Z,1.20
2022-09-23T00:32:31.948Z,1.50
2022-09-23T00:33:31.911Z,1.30
2022-09-23T00:34:31.899Z,1.20
2022-09-23T00:35:31.884Z,1.40
2022-09-23T00:36:31.879Z,1.30
2022-09-23T00:37:31.897Z,1.20
2022-09-23T00:38:31.852Z,1.30
2022-09-23T00:39:31.850Z,1.30
2022-09-23T00:40:31.881Z,1.50
2022-09-23T00:41:31.966Z,1.20
2022-09-23T00:42:31.823Z,1.20
2022-09-23T00:43:31.814Z,1.50
2022-09-23T00:44:31.801Z,1.40
2022-09-23T00:45:31.788Z,1.40
2022-09-23T00:46:31.870Z,1.40
2022-09-23T00:47:31.780Z,1.30
2022-09-23T00:48:31.761Z,1.30
2022-09-23T00:49:31.757Z,1.20
2022-09-23T00:50:31.738Z,1.50
2022-09-23T00:51:31.732Z,1.40
2022-09-23T00:52:31.735Z,1.50
2022-09-23T00:53:31.727Z,1.30
2022-09-23T00:54:31.697Z,1.10
2022-09-23T00:55:31.689Z,1.30
2022-09-23T00:56:31.700Z,1.40
2022-09-23T00:57:31.686Z,1.50
2022-09-23T00:58:31.664Z,1.50
2022-09-23T00:59:31.660Z,1.20
2022-09-23T01:00:31.674Z,1.20
2022-09-23T01:01:31.686Z,2.20
2022-09-23T01:02:31.780Z,1.20
2022-09-23T01:03:31.616Z,1.60
2022-09-23T01:04:31.590Z,1.60
2022-09-23T01:05:31.593Z,1.50
2022-09-23T01:06:31.571Z,1.20
2022-09-23T01:07:31.584Z,1.30
2022-09-23T01:08:31.566Z,1.20
2022-09-23T01:09:31.550Z,1.30
2022-09-23T01:10:31.541Z,1.60
2022-09-23T01:11:31.549Z,1.30
2022-09-23T01:12:31.534Z,1.20
2022-09-23T01:13:31.509Z,1.70
2022-09-23T01:14:31.497Z,1.30
2022-09-23T01:15:31.495Z,1.20
2022-09-23T01:16:31.554Z,1.40
2022-09-23T01:17:31.464Z,1.20
2022-09-23T01:18:31.464Z,1.60
2022-09-23T01:19:31.451Z,1.50
2022-09-23T01:20:31.440Z,1.50
2022-09-23T01:21:31.447Z,1.20
2022-09-23T01:22:31.415Z,1.30
2022-09-23T01:23:31.413Z,1.20
2022-09-23T01:24:31.399Z,1.50
2022-09-23T01:25:31.397Z,1.70
2022-09-23T01:26:31.387Z,1.40
2022-09-23T01:27:31.367Z,1.30
2022-09-23T01:28:31.355Z,1.20
2022-09-23T01:29:31.355Z,1.50
2022-09-23T01:30:31.398Z,1.40
2022-09-23T01:31:31.361Z,1.40
2022-09-23T01:32:31.317Z,1.20
2022-09-23T01:33:31.309Z,1.40
2022-09-23T01:34:31.295Z,1.50
2022-09-23T01:35:31.296Z,1.10
2022-09-23T01:36:31.276Z,1.70
2022-09-23T01:37:31.291Z,1.40
2022-09-23T01:38:31.256Z,1.30
2022-09-23T01:39:31.253Z,1.60
2022-09-23T01:40:31.272Z,1.30
2022-09-23T01:41:31.243Z,1.50
2022-09-23T01:42:31.214Z,1.20
2022-09-23T01:43:31.209Z,1.40
2022-09-23T01:44:31.196Z,1.40
2022-09-23T01:45:31.214Z,1.50
2022-09-23T01:46:31.231Z,1.30
2022-09-23T01:47:31.176Z,1.70
2022-09-23T01:48:31.186Z,1.60
2022-09-23T01:49:31.162Z,1.50
2022-09-23T01:50:37.156Z,1.30
2022-09-23T01:51:31.175Z,1.60
2022-09-23T01:52:31.122Z,1.50
2022-09-23T01:53:31.823Z,1.50
2022-09-23T01:54:31.097Z,1.30
2022-09-23T01:55:31.126Z,1.20
2022-09-23T01:56:31.111Z,1.40
2022-09-23T01:57:31.098Z,1.40
2022-09-23T01:58:31.080Z,1.60
2022-09-23T01:59:31.070Z,1.50
2022-09-23T02:00:31.041Z,1.60
2022-09-23T02:01:31.171Z,1.30
2022-09-23T02:02:31.119Z,1.50
2022-09-23T02:03:37.024Z,1.40
2022-09-23T02:04:30.994Z,1.80
2022-09-23T02:05:31.015Z,1.70
2022-09-23T02:06:30.988Z,1.40
2022-09-23T02:07:30.973Z,1.60
2022-09-23T02:08:30.969Z,1.50
2022-09-23T02:09:30.955Z,1.30
2022-09-23T02:10:30.955Z,1.40
2022-09-23T02:11:30.948Z,1.60
2022-09-23T02:12:30.918Z,1.80
2022-09-23T02:13:30.908Z,1.50
2022-09-23T02:14:30.896Z,1.50
2022-09-23T02:15:30.893Z,1.80
2022-09-23T02:16:30.916Z,1.80
2022-09-23T02:17:30.884Z,1.10
2022-09-23T02:18:30.855Z,1.50
2022-09-23T02:19:30.851Z,1.40
2022-09-23T02:20:30.851Z,1.40
2022-09-23T02:21:30.858Z,1.30
2022-09-23T02:22:30.819Z,1.50
2022-09-23T02:23:30.805Z,1.40
2022-09-23T02:24:30.804Z,1.50
2022-09-23T02:25:30.804Z,1.50
2022-09-23T02:26:30.811Z,1.40
2022-09-23T02:27:30.800Z,1.40
2022-09-23T02:28:30.761Z,1.60
2022-09-23T02:29:30.751Z,1.90
2022-09-23T02:30:30.734Z,1.60
2022-09-23T02:31:30.829Z,1.40
2022-09-23T02:32:30.716Z,1.50
2022-09-23T02:33:30.719Z,1.40
2022-09-23T02:34:30.702Z,1.10
2022-09-23T02:35:30.694Z,1.60
2022-09-23T02:36:30.697Z,1.50
2022-09-23T02:37:30.672Z,1.60
2022-09-23T02:38:30.659Z,1.10
2022-09-23T02:39:30.662Z,1.80
2022-09-23T02:40:30.727Z,1.60
2022-09-23T02:41:30.651Z,1.30
2022-09-23T02:42:30.621Z,1.60
2022-09-23T02:43:30.612Z,1.40
2022-09-23T02:44:30.608Z,1.40
2022-09-23T02:45:30.656Z,1.50
2022-09-23T02:46:30.597Z,1.40
2022-09-23T02:47:30.573Z,1.50
2022-09-23T02:48:30.567Z,1.60
2022-09-23T02:49:30.585Z,1.50
2022-09-23T02:50:30.561Z,1.50
2022-09-23T02:51:30.548Z,1.50
2022-09-23T02:52:30.520Z,1.40
2022-09-23T02:53:30.512Z,1.80
2022-09-23T02:54:30.521Z,1.60
2022-09-23T02:55:30.490Z,1.30
2022-09-23T02:56:30.493Z,1.50
2022-09-23T02:57:30.475Z,1.50
2022-09-23T02:58:30.462Z,1.30
2022-09-23T02:59:30.452Z,1.40
2022-09-23T03:00:30.463Z,1.50
2022-09-23T03:01:30.543Z,1.40
2022-09-23T03:02:30.593Z,1.70
2022-09-23T03:03:30.415Z,1.50
2022-09-23T03:04:30.408Z,1.50
2022-09-23T03:05:30.400Z,1.30
2022-09-23T03:06:30.382Z,1.50
2022-09-23T03:07:30.384Z,1.80
2022-09-23T03:08:30.364Z,1.80
2022-09-23T03:09:30.351Z,1.50
2022-09-23T03:10:30.347Z,1.70
2022-09-23T03:11:30.332Z,1.60
2022-09-23T03:12:30.343Z,1.40
2022-09-23T03:13:30.326Z,1.20
2022-09-23T03:14:30.304Z,1.50
2022-09-23T03:15:30.291Z,1.80
2022-09-23T03:16:30.388Z,1.60
2022-09-23T03:17:30.273Z,1.40
2022-09-23T03:18:30.269Z,1.70
2022-09-23T03:19:30.256Z,1.60
2022-09-23T03:20:30.258Z,1.40
2022-09-23T03:21:30.254Z,1.80
2022-09-23T03:22:30.231Z,1.60
2022-09-23T03:23:30.209Z,1.60
2022-09-23T03:24:30.210Z,1.40
2022-09-23T03:25:30.203Z,1.50
2022-09-23T03:26:30.201Z,1.40
2022-09-23T03:27:30.182Z,1.60
2022-09-23T03:28:30.168Z,1.70
2022-09-23T03:29:30.159Z,1.40
2022-09-23T03:30:30.147Z,1.40
2022-09-23T03:31:30.264Z,1.90
2022-09-23T03:32:30.129Z,1.40
2022-09-23T03:33:30.138Z,1.40
2022-09-23T03:34:30.117Z,1.70
2022-09-23T03:35:30.095Z,1.50
2022-09-23T03:36:30.098Z,1.70
2022-09-23T03:37:30.070Z,1.50
2022-09-23T03:38:30.085Z,1.60
2022-09-23T03:39:30.051Z,1.40
2022-09-23T03:40:30.164Z,1.40
2022-09-23T03:41:30.044Z,1.70
2022-09-23T03:42:30.052Z,1.50
2022-09-23T03:43:30.112Z,1.30
2022-09-23T03:44:30.012Z,1.60
2022-09-23T03:45:30.080Z,1.40
2022-09-23T03:46:30.006Z,1.30
2022-09-23T03:47:29.977Z,1.60
2022-09-23T03:48:29.971Z,1.30
2022-09-23T03:49:29.954Z,1.90
2022-09-23T03:50:29.957Z,1.50
2022-09-23T03:51:29.932Z,1.60
2022-09-23T03:52:29.943Z,1.60
2022-09-23T03:53:30.011Z,1.70
2022-09-23T03:54:29.908Z,1.60
2022-09-23T03:55:29.889Z,1.40
2022-09-23T03:56:29.936Z,1.60
2022-09-23T03:57:29.884Z,1.40
2022-09-23T03:58:29.866Z,1.80
2022-09-23T03:59:29.852Z,1.70
2022-09-23T04:00:29.858Z,1.70
2022-09-23T04:01:29.829Z,1.70
2022-09-23T04:02:29.943Z,1.70
2022-09-23T04:03:29.815Z,2.00
2022-09-23T04:04:29.802Z,1.80
2022-09-23T04:05:29.789Z,1.50
2022-09-23T04:06:29.794Z,1.70
2022-09-23T04:07:29.789Z,1.70
2022-09-23T04:08:29.765Z,2.00
2022-09-23T04:09:29.750Z,1.50
2022-09-23T04:10:29.749Z,1.60
2022-09-23T04:11:29.738Z,1.80
2022-09-23T04:12:29.742Z,1.60
2022-09-23T04:13:29.714Z,1.40
2022-09-23T04:14:29.715Z,1.30
2022-09-23T04:15:29.692Z,1.30
2022-09-23T04:16:29.732Z,1.40
2022-09-23T04:17:29.684Z,1.50
2022-09-23T04:18:29.667Z,1.60
2022-09-23T04:19:29.673Z,1.40
2022-09-23T04:20:29.651Z,1.30
2022-09-23T04:21:29.644Z,1.30
2022-09-23T04:22:29.650Z,1.50
2022-09-23T04:23:29.611Z,1.50
2022-09-23T04:24:29.615Z,1.50
2022-09-23T04:25:29.593Z,1.40
2022-09-23T04:26:29.590Z,1.20
2022-09-23T04:27:31.286Z,1.40
2022-09-23T04:28:29.577Z,1.50
2022-09-23T04:29:29.563Z,1.20
2022-09-23T04:30:29.549Z,1.40
2022-09-23T04:31:29.600Z,1.50
2022-09-23T04:32:29.542Z,1.30
2022-09-23T04:33:29.522Z,1.30
2022-09-23T04:34:29.515Z,1.30
2022-09-23T04:35:29.500Z,1.50
2022-09-23T04:36:29.489Z,1.70
2022-09-23T04:37:29.493Z,1.50
2022-09-23T04:38:29.467Z,1.60
2022-09-23T04:39:29.464Z,1.70
2022-09-23T04:40:29.510Z,1.60
2022-09-23T04:41:29.451Z,2.10
2022-09-23T04:42:29.433Z,1.70
2022-09-23T04:43:29.419Z,1.50
2022-09-23T04:44:29.412Z,2.10
2022-09-23T04:45:29.394Z,1.90
2022-09-23T04:46:29.438Z,1.60
2022-09-23T04:47:29.386Z,1.80
2022-09-23T04:48:29.371Z,1.50
2022-09-23T04:49:29.362Z,1.60
2022-09-23T04:50:29.347Z,1.60
2022-09-23T04:51:29.359Z,1.70
2022-09-23T04:52:29.334Z,1.40
2022-09-23T04:53:29.320Z,1.80
2022-09-23T04:54:29.310Z,1.60
2022-09-23T04:55:29.302Z,1.30
2022-09-23T04:56:29.315Z,1.50
2022-09-23T04:57:29.272Z,1.70
2022-09-23T04:58:29.274Z,2.00
2022-09-23T04:59:29.258Z,1.60
2022-09-23T05:00:29.322Z,1.40
2022-09-23T05:01:29.292Z,1.70
2022-09-23T05:02:29.268Z,1.90
2022-09-23T05:03:29.227Z,1.70
2022-09-23T05:04:29.224Z,2.00
2022-09-23T05:05:29.214Z,1.60
2022-09-23T05:06:29.200Z,1.70
2022-09-23T05:07:29.214Z,1.60
2022-09-23T05:08:29.171Z,1.70
2022-09-23T05:09:29.170Z,1.60
2022-09-23T05:10:29.149Z,1.90
2022-09-23T05:11:29.139Z,1.60
2022-09-23T05:12:29.147Z,1.90
2022-09-23T05:13:29.126Z,1.60
2022-09-23T05:14:29.119Z,1.70
2022-09-23T05:15:29.103Z,1.40
2022-09-23T05:16:29.196Z,1.60
2022-09-23T05:17:29.103Z,1.60
2022-09-23T05:18:29.081Z,1.70
2022-09-23T05:19:29.058Z,1.80
2022-09-23T05:20:29.068Z,1.40
2022-09-23T05:21:29.183Z,1.80
2022-09-23T05:22:29.078Z,1.80
2022-09-23T05:23:29.038Z,1.70
2022-09-23T05:24:29.014Z,1.50
2022-09-23T05:25:29.000Z,1.50
2022-09-23T05:26:29.013Z,1.60
2022-09-23T05:27:28.975Z,1.50
2022-09-23T05:28:28.995Z,1.70
2022-09-23T05:29:28.983Z,1.60
2022-09-23T05:30:28.957Z,1.60
2022-09-23T05:31:29.079Z,1.70
2022-09-23T05:32:28.939Z,1.60
2022-09-23T05:33:28.923Z,1.30
2022-09-23T05:34:28.927Z,2.00
2022-09-23T05:35:28.898Z,1.50
2022-09-23T05:36:28.921Z,1.30
2022-09-23T05:37:28.875Z,1.40
2022-09-23T05:38:28.880Z,1.50
2022-09-23T05:39:28.860Z,1.70
2022-09-23T05:40:28.896Z,1.70
2022-09-23T05:41:28.939Z,1.40
2022-09-23T05:42:28.868Z,1.80
2022-09-23T05:43:28.846Z,1.70
2022-09-23T05:44:28.848Z,1.80
2022-09-23T05:45:28.913Z,1.60
2022-09-23T05:46:28.922Z,1.60
2022-09-23T05:47:28.773Z,1.70
2022-09-23T05:48:28.777Z,1.70
2022-09-23T05:49:48.389Z,1.50
2022-09-23T05:50:28.764Z,1.50
2022-09-23T05:51:30.932Z,1.50
2022-09-23T05:52:28.750Z,1.90
2022-09-23T05:53:28.750Z,1.50
2022-09-23T05:54:28.707Z,1.80
2022-09-23T05:55:28.708Z,1.50
2022-09-23T05:56:28.734Z,1.90
2022-09-23T05:57:28.678Z,1.80
2022-09-23T05:58:28.730Z,1.60
2022-09-23T05:59:28.662Z,1.50
2022-09-23T06:00:28.678Z,1.90
2022-09-23T06:01:28.800Z,1.50
2022-09-23T06:02:28.704Z,1.20
2022-09-23T06:03:28.707Z,1.50
2022-09-23T06:04:28.619Z,1.50
2022-09-23T06:05:28.603Z,1.70
2022-09-23T06:06:28.594Z,1.40
2022-09-23T06:07:28.589Z,1.50
2022-09-23T06:08:28.576Z,2.00
2022-09-23T06:09:31.785Z,1.70
2022-09-23T06:10:28.596Z,1.70
2022-09-23T06:11:28.540Z,1.80
2022-09-23T06:12:28.567Z,2.10
2022-09-23T06:13:28.523Z,1.90
2022-09-23T06:14:28.524Z,2.10
2022-09-23T06:15:28.500Z,2.00
2022-09-23T06:16:28.533Z,1.90
2022-09-23T06:17:28.528Z,2.20
2022-09-23T06:18:28.476Z,1.90
2022-09-23T06:19:28.458Z,1.80
2022-09-23T06:20:28.574Z,1.90
2022-09-23T06:21:28.443Z,2.20
2022-09-23T06:22:28.453Z,1.90
2022-09-23T06:23:28.427Z,1.90
2022-09-23T06:24:31.311Z,1.50
2022-09-23T06:25:28.477Z,1.50
2022-09-23T06:26:28.392Z,1.50
2022-09-23T06:27:28.397Z,1.70
2022-09-23T06:28:28.374Z,1.80
2022-09-23T06:29:28.362Z,1.90
2022-09-23T06:30:28.352Z,1.40
2022-09-23T06:31:28.373Z,1.80
2022-09-23T06:32:28.356Z,1.50
2022-09-23T06:33:36.174Z,1.90
2022-09-23T06:34:28.320Z,1.70
2022-09-23T06:35:28.323Z,1.70
2022-09-23T06:36:40.075Z,1.80
2022-09-23T06:37:28.291Z,1.60
2022-09-23T06:38:28.280Z,1.90
2022-09-23T06:39:28.259Z,1.90
2022-09-23T06:40:28.520Z,2.00
2022-09-23T06:41:28.239Z,1.80
2022-09-23T06:42:28.273Z,2.10
2022-09-23T06:43:28.228Z,1.90
2022-09-23T06:44:28.218Z,1.80
2022-09-23T06:45:28.208Z,1.90
2022-09-23T06:46:28.316Z,1.90
2022-09-23T06:47:28.184Z,2.00
2022-09-23T06:48:28.178Z,1.80
2022-09-23T06:49:28.160Z,1.90
2022-09-23T06:50:28.155Z,1.80
2022-09-23T06:51:28.154Z,1.80
2022-09-23T06:52:28.152Z,1.70
2022-09-23T06:53:28.125Z,1.80
2022-09-23T06:54:28.119Z,1.90
2022-09-23T06:55:28.098Z,2.10
2022-09-23T06:56:28.093Z,2.10
2022-09-23T06:57:28.095Z,1.70
2022-09-23T06:58:28.082Z,1.70
2022-09-23T06:59:28.061Z,1.90
2022-09-23T07:00:28.049Z,2.20
2022-09-23T07:01:28.108Z,1.80
2022-09-23T07:02:28.191Z,1.70
2022-09-23T07:03:28.026Z,1.70
2022-09-23T07:04:29.463Z,1.90
2022-09-23T07:05:28.000Z,1.60
2022-09-23T07:06:28.011Z,2.00
2022-09-23T07:07:27.978Z,2.00
2022-09-23T07:08:27.981Z,1.90
2022-09-23T07:09:27.964Z,1.80
2022-09-23T07:10:27.960Z,1.80
2022-09-23T07:11:27.951Z,1.70
2022-09-23T07:12:27.942Z,1.90
2022-09-23T07:13:27.923Z,2.00
2022-09-23T07:14:27.918Z,1.80
2022-09-23T07:15:27.906Z,2.10
2022-09-23T07:16:27.949Z,2.30
2022-09-23T07:17:27.904Z,1.70
2022-09-23T07:18:27.892Z,1.90
2022-09-23T07:19:27.900Z,1.70
2022-09-23T07:20:27.863Z,1.80
2022-09-23T07:21:27.948Z,1.90
2022-09-23T07:22:27.837Z,1.70
2022-09-23T07:23:27.835Z,1.90
2022-09-23T07:24:27.846Z,2.00
2022-09-23T07:25:27.834Z,1.80
2022-09-23T07:26:27.795Z,1.90
2022-09-23T07:27:27.837Z,1.60
2022-09-23T07:28:27.787Z,1.80
2022-09-23T07:29:28.338Z,1.90
2022-09-23T07:30:27.783Z,1.90
2022-09-23T07:31:38.664Z,1.80
2022-09-23T07:32:29.175Z,1.90
2022-09-23T07:33:32.206Z,1.80
2022-09-23T07:34:27.718Z,1.80
2022-09-23T07:35:27.711Z,1.70
2022-09-23T07:36:27.694Z,1.60
2022-09-23T07:37:27.694Z,1.60
2022-09-23T07:38:27.685Z,1.70
2022-09-23T07:39:27.665Z,1.50
2022-09-23T07:40:27.759Z,1.70
2022-09-23T07:41:27.646Z,1.50
2022-09-23T07:42:27.643Z,1.60
2022-09-23T07:43:27.630Z,1.40
2022-09-23T07:44:27.609Z,1.30
2022-09-23T07:45:27.613Z,1.50
2022-09-23T07:46:27.705Z,1.50
2022-09-23T07:47:27.603Z,1.40
2022-09-23T07:48:31.929Z,1.50
2022-09-23T07:49:27.579Z,1.30
2022-09-23T07:50:27.552Z,1.30
2022-09-23T07:51:29.885Z,1.50
2022-09-23T07:52:27.559Z,1.30
2022-09-23T07:53:27.528Z,1.40
2022-09-23T07:54:27.517Z,1.40
2022-09-23T07:55:27.512Z,1.40
2022-09-23T07:56:27.513Z,1.90
2022-09-23T07:57:27.530Z,1.60
2022-09-23T07:58:27.478Z,1.70
2022-09-23T07:59:27.470Z,1.60
2022-09-23T08:00:27.469Z,1.70
2022-09-23T08:01:27.654Z,1.20
2022-09-23T08:02:27.517Z,1.50
2022-09-23T08:03:27.442Z,1.50
2022-09-23T08:04:27.474Z,1.70
2022-09-23T08:05:27.421Z,1.50
2022-09-23T08:06:27.409Z,1.40
2022-09-23T08:07:27.440Z,1.70
2022-09-23T08:08:27.376Z,1.40
2022-09-23T08:09:27.363Z,1.30
2022-09-23T08:10:27.357Z,1.40
2022-09-23T08:11:27.368Z,1.30
2022-09-23T08:12:27.328Z,1.50
2022-09-23T08:13:27.342Z,1.50
2022-09-23T08:14:27.355Z,1.40
2022-09-23T08:15:27.428Z,1.20
2022-09-23T08:16:27.436Z,1.40
2022-09-23T08:17:27.286Z,1.40
2022-09-23T08:18:27.284Z,1.30
2022-09-23T08:19:27.263Z,1.60
2022-09-23T08:20:27.256Z,1.60
2022-09-23T08:21:27.300Z,2.10
2022-09-23T08:22:27.229Z,2.00
2022-09-23T08:23:27.270Z,1.50
2022-09-23T08:24:27.221Z,1.80
2022-09-23T08:25:27.265Z,1.50
2022-09-23T08:26:27.198Z,1.40
2022-09-23T08:27:27.204Z,1.40
2022-09-23T08:28:27.189Z,1.50
2022-09-23T08:29:27.167Z,1.30
2022-09-23T08:30:27.152Z,1.40
2022-09-23T08:31:27.187Z,1.60
2022-09-23T08:32:27.135Z,1.20
2022-09-23T08:33:27.131Z,1.70
2022-09-23T08:34:27.106Z,1.50
2022-09-23T08:35:27.202Z,1.60
2022-09-23T08:36:27.105Z,1.50
2022-09-23T08:37:27.102Z,1.50
2022-09-23T08:38:27.106Z,1.60
2022-09-23T08:39:27.067Z,1.70
2022-09-23T08:40:27.092Z,1.40
2022-09-23T08:41:27.079Z,1.50
2022-09-23T08:42:27.031Z,1.50
2022-09-23T08:43:27.044Z,1.50
2022-09-23T08:44:27.024Z,1.50
2022-09-23T08:45:27.012Z,1.70
2022-09-23T08:46:27.097Z,1.70
2022-09-23T08:47:26.996Z,1.80
2022-09-23T08:48:26.972Z,1.40
2022-09-23T08:49:26.960Z,1.30
2022-09-23T08:50:27.004Z,1.30
2022-09-23T08:51:26.960Z,1.40
2022-09-23T08:52:26.930Z,1.50
2022-09-23T08:53:26.936Z,1.20
2022-09-23T08:54:26.919Z,1.70
2022-09-23T08:55:26.909Z,1.40
2022-09-23T08:56:26.909Z,1.40
2022-09-23T08:57:26.895Z,1.60
2022-09-23T08:58:27.135Z,1.40
2022-09-23T08:59:26.860Z,1.50
2022-09-23T09:00:26.877Z,1.60
2022-09-23T09:01:26.917Z,1.40
2022-09-23T09:02:26.874Z,1.60
2022-09-23T09:03:27.227Z,1.70
2022-09-23T09:04:26.808Z,1.60
2022-09-23T09:05:26.810Z,1.60
2022-09-23T09:06:26.806Z,1.40
2022-09-23T09:07:42.226Z,1.60
2022-09-23T09:08:26.773Z,1.60
2022-09-23T09:09:26.770Z,1.50
2022-09-23T09:10:26.781Z,1.30
2022-09-23T09:11:26.768Z,1.50
2022-09-23T09:12:26.738Z,1.40
2022-09-23T09:13:26.758Z,1.60
2022-09-23T09:14:26.717Z,1.20
2022-09-23T09:15:26.797Z,1.30
2022-09-23T09:16:48.266Z,1.20
2022-09-23T09:17:26.693Z,1.40
2022-09-23T09:18:26.672Z,1.10
2022-09-23T09:19:26.688Z,1.40
2022-09-23T09:20:26.658Z,1.70
2022-09-23T09:21:26.679Z,1.30
2022-09-23T09:22:26.697Z,1.20
2022-09-23T09:23:26.763Z,1.40
2022-09-23T09:24:26.607Z,1.10
2022-09-23T09:25:28.786Z,1.30
2022-09-23T09:26:26.620Z,1.40
2022-09-23T09:27:26.598Z,1.40
2022-09-23T09:28:26.580Z,1.40
2022-09-23T09:29:42.429Z,1.30
2022-09-23T09:30:26.591Z,1.30
2022-09-23T09:31:26.651Z,1.40
2022-09-23T09:32:26.564Z,1.50
2022-09-23T09:33:26.550Z,1.40
2022-09-23T09:34:26.517Z,1.40
2022-09-23T09:35:26.513Z,1.30
2022-09-23T09:36:26.552Z,1.40
2022-09-23T09:37:26.485Z,1.30
2022-09-23T09:38:26.474Z,1.20
2022-09-23T09:39:26.474Z,1.10
2022-09-23T09:40:26.542Z,1.30
2022-09-23T09:41:26.475Z,1.80
2022-09-23T09:42:26.436Z,1.70
2022-09-23T09:43:26.431Z,1.30
2022-09-23T09:44:26.424Z,1.30
2022-09-23T09:45:26.410Z,1.20
2022-09-23T09:46:26.440Z,1.40
2022-09-23T09:47:26.393Z,1.40
2022-09-23T09:48:26.389Z,1.30
2022-09-23T09:49:26.371Z,1.00
2022-09-23T09:50:26.367Z,1.30
2022-09-23T09:51:26.360Z,1.60
2022-09-23T09:52:26.336Z,1.30
2022-09-23T09:53:26.280Z,1.40
2022-09-23T09:54:26.259Z,0.80
2022-09-23T09:55:26.258Z,1.30
2022-09-23T09:56:26.329Z,1.20
2022-09-23T09:57:26.238Z,1.20
2022-09-23T09:58:26.221Z,1.10
2022-09-23T09:59:26.239Z,1.20
2022-09-23T10:00:26.211Z,1.40
2022-09-23T10:01:26.234Z,1.30
2022-09-23T10:02:26.173Z,1.40
2022-09-23T10:03:26.174Z,1.10
2022-09-23T10:04:26.198Z,1.30
2022-09-23T10:05:26.146Z,1.20
2022-09-23T10:06:26.148Z,1.20
2022-09-23T10:07:26.135Z,1.20
2022-09-23T10:08:26.117Z,1.20
2022-09-23T10:09:26.153Z,1.30
2022-09-23T10:10:32.868Z,1.40
2022-09-23T10:11:26.124Z,1.10
2022-09-23T10:12:26.078Z,1.30
2022-09-23T10:13:26.080Z,1.00
2022-09-23T10:14:26.050Z,1.50
2022-09-23T10:15:26.067Z,1.20
2022-09-23T10:16:26.136Z,1.00
2022-09-23T10:17:26.041Z,1.50
2022-09-23T10:18:26.030Z,1.30
2022-09-23T10:19:26.052Z,1.20
2022-09-23T10:20:26.041Z,1.20
2022-09-23T10:21:28.042Z,1.40
2022-09-23T10:22:26.080Z,1.00
2022-09-23T10:23:26.022Z,1.40
2022-09-23T10:24:25.990Z,1.20
2022-09-23T10:25:25.960Z,1.10
2022-09-23T10:26:25.974Z,1.20
2022-09-23T10:27:25.945Z,1.30
2022-09-23T10:28:25.920Z,1.30
2022-09-23T10:29:25.918Z,1.50
2022-09-23T10:30:25.899Z,1.40
2022-09-23T10:31:25.926Z,1.30
2022-09-23T10:32:25.905Z,1.50
2022-09-23T10:33:25.864Z,1.30
2022-09-23T10:34:25.863Z,1.00
2022-09-23T10:35:25.872Z,1.10
2022-09-23T10:36:25.843Z,1.20
2022-09-23T10:37:25.836Z,1.10
2022-09-23T10:38:25.825Z,1.00
2022-09-23T10:39:25.825Z,1.50
2022-09-23T10:40:25.842Z,1.20
2022-09-23T10:41:25.816Z,0.90
2022-09-23T10:42:25.795Z,1.00
2022-09-23T10:43:25.781Z,1.10
2022-09-23T10:44:25.780Z,1.20
2022-09-23T10:45:25.758Z,1.00
2022-09-23T10:46:25.778Z,1.10
2022-09-23T10:47:25.741Z,1.10
2022-09-23T10:48:25.722Z,1.10
2022-09-23T10:49:25.741Z,1.10
2022-09-23T10:50:25.702Z,1.00
2022-09-23T10:51:26.370Z,1.00
2022-09-23T10:52:25.706Z,1.30
2022-09-23T10:53:25.712Z,1.60
2022-09-23T10:54:25.673Z,0.90
2022-09-23T10:55:25.654Z,0.90
2022-09-23T10:56:25.693Z,1.20
2022-09-23T10:57:25.640Z,1.00
2022-09-23T10:58:25.626Z,1.20
2022-09-23T10:59:25.695Z,1.40
2022-09-23T11:00:25.608Z,1.00
2022-09-23T11:01:25.717Z,1.00
2022-09-23T11:02:25.586Z,1.20
2022-09-23T11:03:25.654Z,1.10
2022-09-23T11:04:25.725Z,1.20
2022-09-23T11:05:25.553Z,1.20
2022-09-23T11:06:25.619Z,1.10
2022-09-23T11:07:25.543Z,1.10
2022-09-23T11:08:25.542Z,1.10
2022-09-23T11:09:25.633Z,1.30
2022-09-23T11:10:45.107Z,1.20
2022-09-23T11:11:25.552Z,1.40
2022-09-23T11:12:25.499Z,1.10
2022-09-23T11:13:25.518Z,1.10
2022-09-23T11:14:25.500Z,1.10
2022-09-23T11:15:25.481Z,1.20
2022-09-23T11:16:25.571Z,1.10
2022-09-23T11:17:25.459Z,1.30
2022-09-23T11:18:25.436Z,1.00
2022-09-23T11:19:25.460Z,1.10
2022-09-23T11:20:25.442Z,1.10
2022-09-23T11:21:25.646Z,1.10
2022-09-23T11:22:25.465Z,1.00
2022-09-23T11:23:25.435Z,1.10
2022-09-23T11:24:25.411Z,1.10
2022-09-23T11:25:25.421Z,1.10
2022-09-23T11:26:30.472Z,1.00
2022-09-23T11:27:25.377Z,1.00
2022-09-23T11:28:25.364Z,1.10
2022-09-23T11:29:25.475Z,1.00
2022-09-23T11:30:25.411Z,1.20
2022-09-23T11:31:25.342Z,1.10
2022-09-23T11:32:25.299Z,1.30
2022-09-23T11:33:25.299Z,0.90
2022-09-23T11:34:25.282Z,1.00
2022-09-23T11:35:25.285Z,1.10
2022-09-23T11:36:25.282Z,1.20
2022-09-23T11:37:25.256Z,1.00
2022-09-23T11:38:25.260Z,1.20
2022-09-23T11:39:25.234Z,1.10
2022-09-23T11:40:25.313Z,1.00
2022-09-23T11:41:25.220Z,1.10
2022-09-23T11:42:25.245Z,1.40
2022-09-23T11:43:25.198Z,1.30
2022-09-23T11:44:25.192Z,0.90
2022-09-23T11:45:25.200Z,1.00
2022-09-23T11:46:25.265Z,1.00
2022-09-23T11:47:25.158Z,1.10
2022-09-23T11:48:25.146Z,1.30
2022-09-23T11:49:25.143Z,1.20
2022-09-23T11:50:25.159Z,1.30
2022-09-23T11:51:25.127Z,1.30
2022-09-23T11:52:25.108Z,1.10
2022-09-23T11:53:25.108Z,1.10
2022-09-23T11:54:25.104Z,1.00
2022-09-23T11:55:25.099Z,1.20
2022-09-23T11:56:34.289Z,1.00
2022-09-23T11:57:25.094Z,1.10
2022-09-23T11:58:26.132Z,1.00
2022-09-23T11:59:36.504Z,1.20
2022-09-23T12:00:25.060Z,1.00
2022-09-23T12:01:35.582Z,1.00
2022-09-23T12:02:30.232Z,1.10
2022-09-23T12:03:37.982Z,1.00
2022-09-23T12:04:25.456Z,0.90
2022-09-23T12:05:25.090Z,1.10
2022-09-23T12:06:24.980Z,1.20
2022-09-23T12:07:24.952Z,1.20
2022-09-23T12:08:25.023Z,1.10
2022-09-23T12:09:47.148Z,1.50
2022-09-23T12:10:25.010Z,1.50
2022-09-23T12:11:24.921Z,1.40
2022-09-23T12:12:27.116Z,1.40
2022-09-23T12:13:24.894Z,2.00
2022-09-23T12:14:24.913Z,1.40
2022-09-23T12:15:24.910Z,1.20
2022-09-23T12:16:24.984Z,1.20
2022-09-23T12:17:24.853Z,1.10
2022-09-23T12:18:24.902Z,1.00
2022-09-23T12:19:24.837Z,1.10
2022-09-23T12:20:24.873Z,1.30
2022-09-23T12:21:46.289Z,0.90
2022-09-23T12:22:24.835Z,0.80
2022-09-23T12:23:24.801Z,1.10
2022-09-23T12:24:24.793Z,1.00
2022-09-23T12:25:24.823Z,1.00
2022-09-23T12:26:24.777Z,0.80
2022-09-23T12:27:24.770Z,1.20
2022-09-23T12:28:24.773Z,1.10
2022-09-23T12:29:24.793Z,1.00
2022-09-23T12:30:24.830Z,1.00
2022-09-23T12:31:24.874Z,1.30
2022-09-23T12:32:24.727Z,1.20
2022-09-23T12:33:24.885Z,1.20
2022-09-23T12:34:24.773Z,1.00
2022-09-23T12:35:24.702Z,1.00
2022-09-23T12:36:24.672Z,1.00
2022-09-23T12:37:24.662Z,0.90
2022-09-23T12:38:24.653Z,1.20
2022-09-23T12:39:24.698Z,1.20
2022-09-23T12:40:24.727Z,1.30
2022-09-23T12:41:24.635Z,0.90
2022-09-23T12:42:27.740Z,1.10
2022-09-23T12:43:24.653Z,1.30
2022-09-23T12:44:24.611Z,1.10
2022-09-23T12:45:24.615Z,1.30
2022-09-23T12:46:24.678Z,1.00
2022-09-23T12:47:24.557Z,1.00
2022-09-23T12:48:24.571Z,1.00
2022-09-23T12:49:24.541Z,1.00
2022-09-23T12:50:24.640Z,1.10
2022-09-23T12:51:24.540Z,1.30
2022-09-23T12:52:24.537Z,1.10
2022-09-23T12:53:24.500Z,1.10
2022-09-23T12:54:24.521Z,1.30
2022-09-23T12:55:24.517Z,1.10
2022-09-23T12:56:24.480Z,0.90
2022-09-23T12:57:24.468Z,1.20
2022-09-23T12:58:24.457Z,1.00
2022-09-23T12:59:24.449Z,0.90
2022-09-23T13:00:24.472Z,1.10
2022-09-23T13:01:24.623Z,1.00
2022-09-23T13:02:24.597Z,1.10
2022-09-23T13:03:24.413Z,1.10
2022-09-23T13:04:24.411Z,1.00
2022-09-23T13:05:24.429Z,0.90
2022-09-23T13:06:24.393Z,1.20
2022-09-23T13:07:24.369Z,0.80
2022-09-23T13:08:24.429Z,1.20
2022-09-23T13:09:24.370Z,1.00
2022-09-23T13:10:24.350Z,1.10
2022-09-23T13:11:24.395Z,1.10
2022-09-23T13:12:24.402Z,1.00
2022-09-23T13:13:24.316Z,0.90
2022-09-23T13:14:27.544Z,1.10
2022-09-23T13:15:24.319Z,1.20
2022-09-23T13:16:24.405Z,0.90
2022-09-23T13:17:24.274Z,1.20
2022-09-23T13:18:24.299Z,1.00